Bagshot, United Kingdom
Current Conditions -  °F | °C
As of 12:50 PM on Monday 29 Dec 2014 (Local Time) from EGLF Reporting Station
Clear Clear  
Wind Chill: 34°   Ceiling: Unl
Heat Index: 39°   Visibility: 6mi
Dew Point: 34°   Wind: 8mph
Humidity: 81%   Direction: 330°NNW
Pressure: 30.74"   Gusts: NA
Location:  51.36°N, 0.69°W
Report Text: EGLF 291250Z 33007KT CAVOK 04/01 Q1041
Loading
Personal Weather Stations






























Interactive Weather Map New forecast layout! Learn more

10-Day Weather Forecast

Advertisements
Track Severe Weather on mobile